createdAt,value
2022-11-21T00:01:14.895Z,2.19
2022-11-21T00:04:16.403Z,2.15
2022-11-21T00:07:17.949Z,2.05
2022-11-21T00:10:19.549Z,1.86
2022-11-21T00:13:21.121Z,1.76
2022-11-21T00:16:22.633Z,1.86
2022-11-21T00:19:24.204Z,2.12
2022-11-21T00:22:25.746Z,2.21
2022-11-21T00:25:27.563Z,2.04
2022-11-21T00:28:29.071Z,1.86
2022-11-21T00:31:31.423Z,1.81
2022-11-21T00:34:33.059Z,1.82
2022-11-21T00:37:34.895Z,1.82
2022-11-21T00:40:36.359Z,1.93
2022-11-21T00:43:37.902Z,2.00
2022-11-21T00:46:39.385Z,2.10
2022-11-21T00:49:40.882Z,2.15
2022-11-21T00:52:42.388Z,2.13
2022-11-21T00:55:43.892Z,2.11
2022-11-21T00:58:45.452Z,2.08
2022-11-21T01:01:47.028Z,1.96
2022-11-21T01:04:48.562Z,1.86
2022-11-21T01:07:50.104Z,1.81
2022-11-21T01:10:51.684Z,1.85
2022-11-21T01:13:53.650Z,1.84
2022-11-21T01:16:55.193Z,1.91
2022-11-21T01:19:56.821Z,1.91
2022-11-21T01:22:58.479Z,1.96
2022-11-21T01:26:07.129Z,1.92
2022-11-21T01:29:08.932Z,1.93
2022-11-21T01:32:10.678Z,1.95
2022-11-21T01:35:12.240Z,1.94
2022-11-21T01:38:13.792Z,1.74
2022-11-21T01:41:16.890Z,1.65
2022-11-21T01:44:44.741Z,1.49
2022-11-21T01:47:46.352Z,1.52
2022-11-21T01:50:47.943Z,1.68
2022-11-21T01:54:00.299Z,1.63
2022-11-21T01:57:04.939Z,1.57
2022-11-21T02:00:13.428Z,1.57
2022-11-21T02:03:15.951Z,1.57
2022-11-21T02:06:17.522Z,1.69
2022-11-21T02:09:19.095Z,1.79
2022-11-21T02:12:25.369Z,1.77
2022-11-21T02:15:27.774Z,1.70
2022-11-21T02:18:29.302Z,1.53
2022-11-21T02:21:33.936Z,1.41
2022-11-21T02:24:40.086Z,1.42
2022-11-21T02:27:41.733Z,1.46
2022-11-21T02:30:43.412Z,1.46
2022-11-21T02:33:44.988Z,1.47
2022-11-21T02:36:47.347Z,1.46
2022-11-21T02:39:48.935Z,1.68
2022-11-21T02:43:04.814Z,1.77
2022-11-21T02:46:11.374Z,1.77
2022-11-21T02:49:12.932Z,1.78
2022-11-21T02:52:14.487Z,1.60
2022-11-21T02:55:16.165Z,1.57
2022-11-21T02:58:17.900Z,1.56
2022-11-21T03:01:19.655Z,1.56
2022-11-21T03:04:21.260Z,1.58
2022-11-21T03:07:22.855Z,1.57
2022-11-21T03:10:24.531Z,1.47
2022-11-21T03:13:26.092Z,1.43
2022-11-21T03:16:27.856Z,1.48
2022-11-21T03:19:29.623Z,1.63
2022-11-21T03:22:31.175Z,1.62
2022-11-21T03:25:32.833Z,1.69
2022-11-21T03:28:34.379Z,1.84
2022-11-21T03:31:35.888Z,1.97
2022-11-21T03:34:37.565Z,2.00
2022-11-21T03:37:39.116Z,1.94
2022-11-21T03:40:40.795Z,1.96
2022-11-21T03:43:42.375Z,1.88
2022-11-21T03:46:44.356Z,1.62
2022-11-21T03:49:45.898Z,1.61
2022-11-21T03:52:47.575Z,1.46
2022-11-21T03:55:49.115Z,1.33
2022-11-21T03:58:50.654Z,1.20
2022-11-21T04:01:52.188Z,1.20
2022-11-21T04:04:53.892Z,1.26
2022-11-21T04:07:55.523Z,1.29
2022-11-21T04:10:57.104Z,1.36
2022-11-21T04:13:58.715Z,1.47
2022-11-21T04:17:00.390Z,1.45
2022-11-21T04:20:01.968Z,1.36
2022-11-21T04:23:03.733Z,1.45
2022-11-21T04:26:05.279Z,1.70
2022-11-21T04:29:06.884Z,1.60
2022-11-21T04:32:08.407Z,1.51
2022-11-21T04:35:09.978Z,1.45
2022-11-21T04:38:11.799Z,1.37
2022-11-21T04:41:13.332Z,1.36
2022-11-21T04:44:14.860Z,1.30
2022-11-21T04:47:16.391Z,1.20
2022-11-21T04:50:18.272Z,1.11
2022-11-21T04:53:20.061Z,1.11
2022-11-21T04:56:21.568Z,1.05
2022-11-21T04:59:23.136Z,1.05
2022-11-21T05:02:24.772Z,1.03
2022-11-21T05:05:26.336Z,0.98
2022-11-21T05:08:27.932Z,0.95
2022-11-21T05:11:48.021Z,0.88
2022-11-21T05:14:49.767Z,0.86
2022-11-21T05:17:51.325Z,0.95
2022-11-21T05:20:52.919Z,0.98
2022-11-21T05:23:54.579Z,1.01
2022-11-21T05:26:56.162Z,1.06
2022-11-21T05:29:57.765Z,1.16
2022-11-21T05:32:59.278Z,1.33
2022-11-21T05:36:00.848Z,1.46
2022-11-21T05:39:02.469Z,1.53
2022-11-21T05:42:04.097Z,1.50
2022-11-21T05:45:05.888Z,1.40
2022-11-21T05:48:07.977Z,1.34
2022-11-21T05:51:09.814Z,1.28
2022-11-21T05:54:12.781Z,1.21
2022-11-21T05:57:14.272Z,1.15
2022-11-21T06:00:16.071Z,1.13
2022-11-21T06:03:33.050Z,1.12
2022-11-21T06:06:34.848Z,1.11
2022-11-21T06:09:36.374Z,1.04
2022-11-21T06:12:38.024Z,1.06
2022-11-21T06:15:39.552Z,1.07
2022-11-21T06:18:45.026Z,1.08
2022-11-21T06:21:46.541Z,1.07
2022-11-21T06:24:48.080Z,1.06
2022-11-21T06:27:49.609Z,1.04
2022-11-21T06:30:52.074Z,0.97
2022-11-21T06:33:54.253Z,1.01
2022-11-21T06:36:58.397Z,1.10
2022-11-21T06:40:00.026Z,1.12
2022-11-21T06:43:01.891Z,1.13
2022-11-21T06:46:04.385Z,1.10
2022-11-21T06:49:06.020Z,1.05
2022-11-21T06:52:07.546Z,1.03
2022-11-21T06:55:09.826Z,1.03
2022-11-21T06:58:11.327Z,1.06
2022-11-21T07:01:13.587Z,1.10
2022-11-21T07:04:15.700Z,1.13
2022-11-21T07:07:20.279Z,1.12
2022-11-21T07:10:21.811Z,1.05
2022-11-21T07:13:23.459Z,1.02
2022-11-21T07:16:26.499Z,1.01
2022-11-21T07:19:28.404Z,0.95
2022-11-21T07:22:30.096Z,0.87
2022-11-21T07:25:36.460Z,0.79
2022-11-21T07:28:38.392Z,0.76
2022-11-21T07:31:39.898Z,0.72
2022-11-21T07:34:41.399Z,0.63
2022-11-21T07:37:42.925Z,0.56
2022-11-21T07:40:44.500Z,0.52
2022-11-21T07:43:46.013Z,0.58
2022-11-21T07:46:47.516Z,0.78
2022-11-21T07:49:49.009Z,0.94
2022-11-21T07:52:50.525Z,0.99
2022-11-21T07:55:52.106Z,0.98
2022-11-21T07:58:53.648Z,0.92
2022-11-21T08:01:55.204Z,0.95
2022-11-21T08:04:56.767Z,0.88
2022-11-21T08:07:58.284Z,0.78
2022-11-21T08:10:59.780Z,0.72
2022-11-21T08:14:01.260Z,0.60
2022-11-21T08:17:03.007Z,0.52
2022-11-21T08:20:05.744Z,0.45
2022-11-21T08:23:07.323Z,0.39
2022-11-21T08:26:09.531Z,0.35
2022-11-21T08:29:11.580Z,0.37
2022-11-21T08:32:13.313Z,0.42
2022-11-21T08:35:14.861Z,0.53
2022-11-21T08:38:16.500Z,0.53
2022-11-21T08:41:36.629Z,0.46
2022-11-21T08:44:38.205Z,0.35
2022-11-21T08:47:39.862Z,0.35
2022-11-21T08:50:41.489Z,0.34
2022-11-21T08:53:43.092Z,0.36
2022-11-21T08:56:44.816Z,0.31
2022-11-21T08:59:46.389Z,0.19
2022-11-21T09:02:47.936Z,0.15
2022-11-21T09:05:49.449Z,0.16
2022-11-21T09:08:51.625Z,0.18
2022-11-21T09:11:53.584Z,0.25
2022-11-21T09:15:13.945Z,0.33
2022-11-21T09:18:15.618Z,0.27
2022-11-21T09:21:17.523Z,0.33
2022-11-21T09:24:19.152Z,0.33
2022-11-21T09:27:20.708Z,0.36
2022-11-21T09:30:22.461Z,0.34
2022-11-21T09:33:24.071Z,0.23
2022-11-21T09:36:25.589Z,0.29
2022-11-21T09:39:27.624Z,0.26
2022-11-21T09:42:47.489Z,0.31
2022-11-21T09:45:50.051Z,0.31
2022-11-21T09:48:58.241Z,0.47
2022-11-21T09:51:59.820Z,0.69
2022-11-21T09:55:01.926Z,0.64
2022-11-21T09:58:29.788Z,0.74
2022-11-21T10:01:32.030Z,0.73
2022-11-21T10:04:33.630Z,0.73
2022-11-21T10:07:35.272Z,0.81
2022-11-21T10:10:50.104Z,0.94
2022-11-21T10:13:57.868Z,1.24
2022-11-21T10:17:05.434Z,1.54
2022-11-21T10:20:10.176Z,1.76
2022-11-21T10:23:17.811Z,1.93
2022-11-21T10:26:19.313Z,2.08
2022-11-21T10:29:28.657Z,2.22
2022-11-21T10:32:34.760Z,2.28
2022-11-21T10:35:37.197Z,2.43
2022-11-21T10:38:39.080Z,2.56
2022-11-21T10:41:42.929Z,2.76
2022-11-21T10:45:03.319Z,2.87
2022-11-21T10:48:08.222Z,2.94
2022-11-21T10:51:12.947Z,2.84
2022-11-21T10:54:33.050Z,2.95
2022-11-21T10:57:39.344Z,2.87
2022-11-21T11:00:41.001Z,2.66
2022-11-21T11:03:45.669Z,2.49
2022-11-21T11:07:00.995Z,2.56
2022-11-21T11:10:32.017Z,2.79
2022-11-21T11:13:50.460Z,2.68
2022-11-21T11:16:52.552Z,2.54
2022-11-21T11:20:07.396Z,2.48
2022-11-21T11:23:16.342Z,2.64
2022-11-21T11:26:28.252Z,2.83
2022-11-21T11:29:35.255Z,2.92
2022-11-21T11:32:39.261Z,3.06
2022-11-21T11:35:40.827Z,3.13
2022-11-21T11:38:43.115Z,3.16
2022-11-21T11:42:17.955Z,3.26
2022-11-21T11:45:48.908Z,3.25
2022-11-21T11:49:17.365Z,3.29
2022-11-21T11:52:12.449Z,3.40
2022-11-21T11:55:16.072Z,3.47
2022-11-21T11:58:22.728Z,3.46
2022-11-21T12:01:30.533Z,3.44
2022-11-21T12:04:40.341Z,3.47
2022-11-21T12:11:32.816Z,3.31
2022-11-21T12:14:53.103Z,3.19
2022-11-21T12:18:13.686Z,3.06
2022-11-21T12:21:15.812Z,2.94
2022-11-21T12:24:20.992Z,2.70
2022-11-21T12:27:31.865Z,2.57
2022-11-21T12:30:47.976Z,2.43
2022-11-21T12:34:12.823Z,2.38
2022-11-21T12:37:26.784Z,2.32
2022-11-21T12:40:31.420Z,2.47
2022-11-21T12:44:05.439Z,2.60
2022-11-21T12:47:23.567Z,2.63
2022-11-21T12:50:46.266Z,2.68
2022-11-21T12:54:19.706Z,2.70
2022-11-21T12:57:21.925Z,2.70
2022-11-21T13:00:42.571Z,2.74
2022-11-21T13:04:10.296Z,2.73
2022-11-21T13:07:11.933Z,2.74
2022-11-21T13:10:16.479Z,2.88
2022-11-21T13:13:26.756Z,2.92
2022-11-21T13:16:37.403Z,3.07
2022-11-21T13:19:58.017Z,3.08
2022-11-21T13:23:00.558Z,3.08
2022-11-21T13:26:02.128Z,3.09
2022-11-21T13:29:09.641Z,3.09
2022-11-21T13:32:29.610Z,3.09
2022-11-21T13:35:50.597Z,3.06
2022-11-21T13:38:55.296Z,3.14
2022-11-21T13:42:19.958Z,3.23
2022-11-21T13:45:45.522Z,3.21
2022-11-21T13:48:52.950Z,3.24
2022-11-21T13:51:54.635Z,3.21
2022-11-21T13:55:02.201Z,3.24
2022-11-21T13:58:15.783Z,3.23
2022-11-21T14:01:49.809Z,3.20
2022-11-21T14:04:51.579Z,3.20
2022-11-21T14:07:53.328Z,3.16
2022-11-21T14:10:56.080Z,3.14
2022-11-21T14:13:57.632Z,3.10
2022-11-21T14:17:34.461Z,3.08
2022-11-21T14:20:51.998Z,3.14
2022-11-21T14:23:54.396Z,3.15
2022-11-21T14:26:56.193Z,3.21
2022-11-21T14:29:57.890Z,3.25
2022-11-21T14:33:17.891Z,3.22
2022-11-21T14:36:29.992Z,3.31
2022-11-21T14:39:38.019Z,3.35
2022-11-21T14:42:42.607Z,3.51
2022-11-21T14:45:49.288Z,3.53
2022-11-21T14:48:52.494Z,3.51
2022-11-21T14:51:57.161Z,3.54
2022-11-21T14:58:24.223Z,3.62
2022-11-21T15:01:27.592Z,3.57
2022-11-21T15:04:31.155Z,3.52
2022-11-21T15:07:51.171Z,3.49
2022-11-21T15:10:55.173Z,3.52
2022-11-21T15:14:15.124Z,3.54
2022-11-21T15:17:18.804Z,3.56
2022-11-21T15:20:20.749Z,3.61
2022-11-21T15:23:29.668Z,3.64
2022-11-21T15:26:32.362Z,3.69
2022-11-21T15:29:33.895Z,3.71
2022-11-21T15:32:55.715Z,3.71
2022-11-21T15:35:57.499Z,3.72
2022-11-21T15:39:03.533Z,3.72
2022-11-21T15:42:23.807Z,3.74
2022-11-21T15:45:26.472Z,3.78
2022-11-21T15:48:27.993Z,3.81
